Time;durP1;ratioP1;P1;durP2;ratioP2;P2;SDS_P1;SDS_P2;PMS_P1;PMS_P2;Temp;Humidity;BMP_temperature;BMP_pressure;BME280_temperature;BME280_humidity;BME280_pressure;Samples;Min_cycle;Max_cycle;Signal;HPM_P1;HPM_P2
2021/07/21 00:01:37;;;;;;;11.45;7.00;;;16.30;96.50;;;;;;5052286;28;20037;-67
2021/07/21 00:04:04;;;;;;;12.30;8.60;;;16.30;96.50;;;;;;5053115;28;20037;-67
2021/07/21 00:06:30;;;;;;;13.02;8.32;;;16.30;96.60;;;;;;5051837;28;20381;-67
2021/07/21 00:08:55;;;;;;;11.50;8.10;;;16.30;96.60;;;;;;5052447;28;20033;-67
2021/07/21 00:14:16;;;;;;;12.32;7.03;;;16.20;96.90;;;;;;5052929;28;20497;-67
2021/07/21 00:16:48;;;;;;;10.43;7.25;;;16.20;96.90;;;;;;5046633;28;20540;-67
2021/07/21 00:21:58;;;;;;;17.70;8.93;;;16.20;97.30;;;;;;5052055;28;20086;-67
2021/07/21 00:24:24;;;;;;;13.00;7.47;;;16.20;97.30;;;;;;5051927;28;20021;-67
2021/07/21 00:26:49;;;;;;;13.20;8.02;;;16.20;97.40;;;;;;5051878;28;20037;-66
2021/07/21 00:29:15;;;;;;;12.82;7.32;;;16.10;97.60;;;;;;5051760;28;20029;-67
2021/07/21 00:31:40;;;;;;;13.00;7.90;;;16.20;98.00;;;;;;5051393;28;20028;-67
2021/07/21 00:34:06;;;;;;;10.45;7.30;;;16.10;98.20;;;;;;5051579;28;20139;-67
2021/07/21 00:36:31;;;;;;;12.18;8.18;;;16.10;98.40;;;;;;5051387;28;20033;-67
2021/07/21 00:38:58;;;;;;;11.90;8.25;;;16.10;98.60;;;;;;5051786;28;20029;-67
2021/07/21 00:41:23;;;;;;;13.85;7.93;;;16.00;98.80;;;;;;5051948;28;20033;-67
2021/07/21 00:43:49;;;;;;;11.38;7.78;;;16.00;99.00;;;;;;5051017;28;20086;-67
2021/07/21 00:46:15;;;;;;;11.85;7.82;;;16.00;99.10;;;;;;5051825;28;20031;-66
2021/07/21 00:48:40;;;;;;;11.60;7.72;;;16.00;99.10;;;;;;5045971;28;20390;-67
2021/07/21 00:51:06;;;;;;;17.17;8.63;;;15.90;99.60;;;;;;5052311;28;20029;-67
2021/07/21 00:53:33;;;;;;;13.20;8.10;;;15.90;99.80;;;;;;5050904;28;20040;-67
2021/07/21 00:56:07;;;;;;;11.35;7.70;;;15.80;99.90;;;;;;5069855;28;20911;-67
2021/07/21 00:58:32;;;;;;;11.45;7.68;;;15.80;99.90;;;;;;5059808;28;20075;-67
2021/07/21 01:00:58;;;;;;;11.50;7.95;;;15.70;99.90;;;;;;5068600;28;20036;-67
2021/07/21 01:03:24;;;;;;;15.50;8.57;;;15.70;99.90;;;;;;5067716;28;20463;-67
2021/07/21 01:05:50;;;;;;;10.95;7.78;;;15.70;99.90;;;;;;5067711;28;20115;-67
2021/07/21 01:08:16;;;;;;;11.43;7.75;;;15.60;99.90;;;;;;5067806;28;20056;-67
2021/07/21 01:10:50;;;;;;;14.52;7.85;;;15.60;99.90;;;;;;5067352;28;20040;-67
2021/07/21 01:13:24;;;;;;;10.25;8.43;;;15.50;99.90;;;;;;5067783;28;20111;-67
2021/07/21 01:16:06;;;;;;;12.82;8.88;;;15.50;99.90;;;;;;5070252;28;20035;-67
2021/07/21 01:18:46;;;;;;;12.35;8.10;;;15.50;99.90;;;;;;5065566;28;20488;-67
2021/07/21 01:21:27;;;;;;;14.10;9.32;;;15.40;99.90;;;;;;5069296;28;20059;-67
2021/07/21 01:24:05;;;;;;;14.55;9.20;;;15.40;99.90;;;;;;5061150;28;20024;-67
2021/07/21 01:26:48;;;;;;;13.68;8.25;;;15.30;99.90;;;;;;5067350;28;20024;-67
2021/07/21 01:29:19;;;;;;;10.93;7.30;;;15.30;99.90;;;;;;5067590;28;20028;-67
2021/07/21 01:31:48;;;;;;;11.93;8.43;;;15.30;99.90;;;;;;5062686;28;20035;-67
2021/07/21 01:34:14;;;;;;;12.77;8.18;;;15.30;99.90;;;;;;5066799;28;20436;-67
2021/07/21 01:36:48;;;;;;;12.75;8.55;;;15.20;99.90;;;;;;5058905;28;20029;-67
2021/07/21 01:39:16;;;;;;;12.55;7.93;;;15.20;99.90;;;;;;5066725;28;20037;-67
2021/07/21 01:41:47;;;;;;;14.05;7.97;;;15.20;99.90;;;;;;5069476;28;20390;-67
2021/07/21 01:44:22;;;;;;;14.45;8.70;;;15.20;99.90;;;;;;5067881;28;20037;-67
2021/07/21 01:46:53;;;;;;;12.82;8.23;;;15.10;99.90;;;;;;5060367;28;20033;-67
2021/07/21 01:49:22;;;;;;;12.38;9.02;;;15.10;99.90;;;;;;5066758;28;20100;-67
2021/07/21 01:51:49;;;;;;;13.57;8.90;;;15.10;99.90;;;;;;5069357;28;20039;-67
2021/07/21 01:54:16;;;;;;;11.35;8.38;;;15.00;99.90;;;;;;5067128;28;20065;-67
2021/07/21 01:56:43;;;;;;;13.38;9.00;;;15.00;99.90;;;;;;5066542;28;20032;-67
2021/07/21 01:59:09;;;;;;;17.25;9.93;;;15.00;99.90;;;;;;5067099;28;20080;-67
2021/07/21 02:01:38;;;;;;;13.95;8.98;;;15.00;99.90;;;;;;5066036;28;20024;-67
2021/07/21 02:04:05;;;;;;;17.98;9.02;;;15.00;99.90;;;;;;5059456;28;20111;-67
2021/07/21 02:06:32;;;;;;;13.75;8.25;;;14.90;99.90;;;;;;5058503;28;20367;-68
2021/07/21 02:09:00;;;;;;;13.30;9.13;;;14.90;99.90;;;;;;5053763;28;20036;-67
2021/07/21 02:11:27;;;;;;;14.55;9.07;;;14.90;99.90;;;;;;5052844;28;20070;-67
2021/07/21 02:13:58;;;;;;;16.55;9.27;;;14.90;99.90;;;;;;5052846;28;20104;-67
2021/07/21 02:16:24;;;;;;;13.27;8.40;;;14.90;99.90;;;;;;5055751;28;20051;-67
2021/07/21 02:18:56;;;;;;;11.57;8.32;;;14.80;99.90;;;;;;5052081;28;20201;-67
2021/07/21 02:21:23;;;;;;;12.00;9.18;;;14.80;99.90;;;;;;5057726;28;20036;-67
2021/07/21 02:23:50;;;;;;;14.88;9.52;;;14.80;99.90;;;;;;5052946;28;20142;-67
2021/07/21 02:26:17;;;;;;;12.93;8.55;;;14.80;99.90;;;;;;5045617;28;20108;-67
2021/07/21 02:28:43;;;;;;;13.48;9.77;;;14.70;99.90;;;;;;5052320;28;20032;-67
2021/07/21 02:31:13;;;;;;;13.35;9.88;;;14.70;99.90;;;;;;5053314;28;20021;-67
2021/07/21 02:33:45;;;;;;;15.18;9.85;;;14.70;99.90;;;;;;5051389;28;20055;-67
2021/07/21 02:36:11;;;;;;;17.20;10.43;;;14.70;99.90;;;;;;5053106;28;20507;-67
2021/07/21 02:38:38;;;;;;;15.57;10.00;;;14.70;99.90;;;;;;5051836;28;20100;-67
2021/07/21 02:41:04;;;;;;;15.52;9.13;;;14.70;99.90;;;;;;5053051;28;20029;-66
2021/07/21 02:43:30;;;;;;;14.65;10.43;;;14.60;99.90;;;;;;5052321;28;20029;-68
2021/07/21 02:45:55;;;;;;;12.13;8.90;;;14.60;99.90;;;;;;5052565;28;20041;-68
2021/07/21 02:48:21;;;;;;;16.92;10.35;;;14.50;99.90;;;;;;5051536;28;20025;-67
2021/07/21 02:50:48;;;;;;;17.90;10.00;;;14.50;99.90;;;;;;5052538;28;20482;-67
2021/07/21 02:53:25;;;;;;;14.35;9.52;;;14.50;99.90;;;;;;5052683;28;20028;-67
2021/07/21 02:55:58;;;;;;;15.38;9.57;;;14.50;99.90;;;;;;5052372;28;20221;-67
2021/07/21 02:58:42;;;;;;;15.27;10.43;;;14.40;99.90;;;;;;5051849;28;20025;-67
2021/07/21 03:01:11;;;;;;;16.20;10.07;;;14.40;99.90;;;;;;5053096;28;20029;-67
2021/07/21 03:03:37;;;;;;;13.38;9.80;;;14.40;99.90;;;;;;5050669;28;20486;-68
2021/07/21 03:06:08;;;;;;;15.15;9.90;;;14.40;99.90;;;;;;5052722;28;20032;-67
2021/07/21 03:08:35;;;;;;;13.00;9.50;;;14.40;99.90;;;;;;5051946;28;20033;-68
2021/07/21 03:11:02;;;;;;;15.73;9.90;;;14.30;99.90;;;;;;5058009;28;20411;-67
2021/07/21 03:13:42;;;;;;;16.20;9.85;;;14.30;99.90;;;;;;5060037;28;20069;-67
2021/07/21 03:16:09;;;;;;;19.58;9.93;;;14.30;99.90;;;;;;5045953;28;20049;-67
2021/07/21 03:18:37;;;;;;;14.48;10.48;;;14.30;99.90;;;;;;5050821;28;20052;-67
2021/07/21 03:21:04;;;;;;;14.77;9.63;;;14.30;99.90;;;;;;5051468;28;20119;-67
2021/07/21 03:23:30;;;;;;;14.90;10.27;;;14.20;99.90;;;;;;5051876;28;20087;-67
2021/07/21 03:26:00;;;;;;;16.00;10.50;;;14.20;99.90;;;;;;5051966;28;20046;-67
2021/07/21 03:28:26;;;;;;;13.18;9.65;;;14.20;99.90;;;;;;5052382;28;20021;-67
2021/07/21 03:30:54;;;;;;;15.63;9.40;;;14.20;99.90;;;;;;5051362;28;20100;-67
2021/07/21 03:33:23;;;;;;;15.05;9.52;;;14.20;99.90;;;;;;5049883;28;20068;-67
2021/07/21 03:35:49;;;;;;;16.08;9.82;;;14.20;99.90;;;;;;5051081;28;20045;-67
2021/07/21 03:38:19;;;;;;;13.27;9.07;;;14.10;99.90;;;;;;5052235;28;20474;-67
2021/07/21 03:40:45;;;;;;;14.23;9.45;;;14.10;99.90;;;;;;5051615;28;20113;-67
2021/07/21 03:43:12;;;;;;;14.32;9.52;;;14.10;99.90;;;;;;5051678;28;20039;-67
2021/07/21 03:45:39;;;;;;;12.85;9.23;;;14.00;99.90;;;;;;5051121;28;20028;-67
2021/07/21 03:48:05;;;;;;;16.98;10.05;;;14.00;99.90;;;;;;5048662;28;20124;-67
2021/07/21 03:50:31;;;;;;;15.07;10.23;;;14.00;99.90;;;;;;5054831;28;20030;-67
2021/07/21 03:52:59;;;;;;;17.35;10.52;;;14.00;99.90;;;;;;5053457;28;20041;-67
2021/07/21 03:55:27;;;;;;;17.25;10.05;;;14.00;99.90;;;;;;5051233;28;20055;-67
2021/07/21 03:57:52;;;;;;;12.95;8.50;;;14.00;99.90;;;;;;5050814;28;20572;-67
2021/07/21 04:00:20;;;;;;;13.68;9.82;;;14.00;99.90;;;;;;5052229;28;20046;-65
2021/07/21 04:02:51;;;;;;;15.50;10.13;;;14.00;99.90;;;;;;5050720;28;20032;-67
2021/07/21 04:05:17;;;;;;;17.08;10.48;;;14.00;99.90;;;;;;5051581;28;20490;-67
2021/07/21 04:07:44;;;;;;;17.30;9.82;;;14.00;99.90;;;;;;5051035;28;20071;-67
2021/07/21 04:10:12;;;;;;;17.80;9.80;;;14.00;99.90;;;;;;5051502;28;20500;-67
2021/07/21 04:12:43;;;;;;;15.40;10.02;;;14.00;99.90;;;;;;5050422;28;20561;-67
2021/07/21 04:15:10;;;;;;;18.13;10.73;;;14.00;99.90;;;;;;5050684;28;20040;-67
2021/07/21 04:17:37;;;;;;;17.55;9.73;;;14.00;99.90;;;;;;5049058;28;20082;-68
2021/07/21 04:20:07;;;;;;;15.80;9.45;;;14.00;99.90;;;;;;5049674;28;20474;-67
2021/07/21 04:22:34;;;;;;;14.40;10.00;;;14.10;99.90;;;;;;5057994;28;20021;-68
2021/07/21 04:25:01;;;;;;;15.30;9.80;;;14.10;99.90;;;;;;5050886;28;20036;-67
2021/07/21 04:27:28;;;;;;;13.60;9.38;;;14.10;99.90;;;;;;5051403;28;20429;-67
2021/07/21 04:29:54;;;;;;;13.77;9.82;;;14.10;99.90;;;;;;5050035;28;20021;-67
2021/07/21 04:32:21;;;;;;;15.23;10.18;;;14.10;99.90;;;;;;5051130;28;20037;-67
2021/07/21 04:34:50;;;;;;;13.43;9.65;;;14.20;99.90;;;;;;5050155;28;20397;-67
2021/07/21 04:37:17;;;;;;;15.38;10.18;;;14.20;99.90;;;;;;5050789;28;20532;-67
2021/07/21 04:39:44;;;;;;;13.68;9.68;;;14.20;99.90;;;;;;5054138;28;20028;-67
2021/07/21 04:42:11;;;;;;;15.90;10.27;;;14.30;99.90;;;;;;5049850;28;20029;-67
2021/07/21 04:44:38;;;;;;;15.52;10.35;;;14.30;99.90;;;;;;5049782;28;20055;-68
2021/07/21 04:47:05;;;;;;;15.95;10.77;;;14.40;99.90;;;;;;5053526;28;20029;-67
2021/07/21 04:49:36;;;;;;;15.02;10.35;;;14.50;99.90;;;;;;5050894;28;20511;-67
2021/07/21 04:52:05;;;;;;;16.30;10.75;;;14.60;99.90;;;;;;5052319;28;20059;-67
2021/07/21 04:54:31;;;;;;;17.13;11.40;;;14.70;99.90;;;;;;5050410;28;20085;-67
2021/07/21 04:56:57;;;;;;;17.67;11.68;;;14.70;99.90;;;;;;5050010;28;20095;-67
2021/07/21 04:59:23;;;;;;;16.77;11.82;;;14.90;99.90;;;;;;5057785;28;20074;-67
2021/07/21 05:01:51;;;;;;;15.57;11.18;;;14.90;99.90;;;;;;5049696;28;20028;-67
2021/07/21 05:04:17;;;;;;;16.88;11.52;;;15.00;99.90;;;;;;5051189;28;20048;-67
2021/07/21 05:06:44;;;;;;;16.45;11.27;;;15.10;99.90;;;;;;5050193;28;20054;-67
2021/07/21 05:09:11;;;;;;;16.95;10.65;;;15.20;99.90;;;;;;5051102;28;20060;-67
2021/07/21 05:11:36;;;;;;;19.83;10.75;;;15.30;99.90;;;;;;5050134;28;20501;-68
2021/07/21 05:14:03;;;;;;;15.48;10.55;;;15.40;99.90;;;;;;5050731;28;20052;-67
2021/07/21 05:16:29;;;;;;;17.95;10.95;;;15.50;99.90;;;;;;5051138;28;20025;-66
2021/07/21 05:18:55;;;;;;;18.02;11.48;;;15.60;99.90;;;;;;5049652;28;20113;-67
2021/07/21 05:21:22;;;;;;;16.27;11.13;;;15.70;99.90;;;;;;5055094;28;20489;-67
2021/07/21 05:23:49;;;;;;;15.25;10.10;;;15.80;99.90;;;;;;5049739;28;20028;-67
2021/07/21 05:26:15;;;;;;;15.02;10.38;;;15.80;99.90;;;;;;5042820;28;20135;-67
2021/07/21 05:28:41;;;;;;;14.05;11.15;;;15.80;99.90;;;;;;5049555;28;20501;-67
2021/07/21 05:31:08;;;;;;;17.73;12.35;;;15.90;99.90;;;;;;5053733;28;20136;-67
2021/07/21 05:33:35;;;;;;;18.25;11.30;;;16.00;99.90;;;;;;5049780;28;20033;-67
2021/07/21 05:36:02;;;;;;;18.27;12.02;;;16.10;99.90;;;;;;5049619;28;20045;-66
2021/07/21 05:38:27;;;;;;;18.02;11.45;;;16.10;99.90;;;;;;5049458;28;20559;-66
2021/07/21 05:40:53;;;;;;;19.25;10.90;;;16.20;99.90;;;;;;5045438;28;20056;-67
2021/07/21 05:43:19;;;;;;;20.80;11.02;;;16.20;99.90;;;;;;5052551;28;20017;-65
2021/07/21 05:45:44;;;;;;;17.13;11.18;;;16.20;99.90;;;;;;5053344;28;20060;-66
2021/07/21 05:48:10;;;;;;;17.95;11.60;;;16.20;99.90;;;;;;5052959;28;20025;-65
2021/07/21 05:50:36;;;;;;;21.13;11.88;;;16.30;99.90;;;;;;5053364;28;20364;-66
2021/07/21 05:53:01;;;;;;;19.02;11.75;;;16.30;99.90;;;;;;5052572;28;20029;-64
2021/07/21 05:55:27;;;;;;;16.58;10.73;;;16.30;99.90;;;;;;5053057;28;20490;-65
2021/07/21 05:57:53;;;;;;;16.38;10.95;;;16.40;99.90;;;;;;5053477;28;20025;-65
2021/07/21 06:00:18;;;;;;;13.57;10.57;;;16.50;99.90;;;;;;5054755;28;20033;-65
2021/07/21 06:02:44;;;;;;;19.08;12.00;;;16.60;99.90;;;;;;5051283;28;20498;-65
2021/07/21 06:05:10;;;;;;;18.80;11.73;;;16.70;99.90;;;;;;5049207;28;20040;-65
2021/07/21 06:07:36;;;;;;;17.40;11.65;;;16.70;99.90;;;;;;5053980;28;20040;-65
2021/07/21 06:10:03;;;;;;;19.40;11.63;;;16.70;99.90;;;;;;5056439;28;20021;-65
2021/07/21 06:12:28;;;;;;;20.60;12.18;;;16.80;99.90;;;;;;5052612;28;20020;-65
2021/07/21 06:14:54;;;;;;;16.85;10.77;;;16.90;99.90;;;;;;5052998;28;20471;-65
2021/07/21 06:17:19;;;;;;;17.77;10.77;;;17.00;99.90;;;;;;5052696;28;20025;-65
2021/07/21 06:19:45;;;;;;;18.65;10.43;;;17.10;99.90;;;;;;5052600;28;20017;-65
2021/07/21 06:22:18;;;;;;;17.50;10.50;;;17.20;99.90;;;;;;5053463;28;20056;-65
2021/07/21 06:24:44;;;;;;;15.63;10.98;;;17.20;99.90;;;;;;5049321;28;20033;-65
2021/07/21 06:27:09;;;;;;;15.05;10.65;;;17.30;99.90;;;;;;5066485;28;20031;-65
2021/07/21 06:29:35;;;;;;;16.25;11.45;;;17.40;99.90;;;;;;5059891;28;20117;-65
2021/07/21 06:32:01;;;;;;;18.52;11.50;;;17.50;99.90;;;;;;5057889;28;20060;-65
2021/07/21 06:34:26;;;;;;;16.75;11.15;;;17.60;99.90;;;;;;5053344;28;20427;-65
2021/07/21 06:36:52;;;;;;;18.90;11.02;;;17.70;99.40;;;;;;5052440;28;20481;-65
2021/07/21 06:39:18;;;;;;;16.92;10.75;;;17.70;99.60;;;;;;5052222;28;20521;-65
2021/07/21 06:41:43;;;;;;;20.27;10.48;;;17.90;98.70;;;;;;5056290;28;20063;-65
2021/07/21 06:44:10;;;;;;;16.67;10.63;;;18.00;98.60;;;;;;5052437;28;20029;-65
2021/07/21 06:46:35;;;;;;;15.68;10.30;;;18.00;98.50;;;;;;5052474;28;20168;-76
2021/07/21 06:49:01;;;;;;;16.15;10.52;;;18.10;97.80;;;;;;5052009;28;20120;-79
2021/07/21 06:51:27;;;;;;;15.05;11.02;;;18.20;97.10;;;;;;5051701;28;20032;-79
2021/07/21 06:53:53;;;;;;;18.67;10.88;;;18.30;96.60;;;;;;5051451;28;20112;-79
2021/07/21 06:56:18;;;;;;;14.88;9.93;;;18.40;96.10;;;;;;5052502;28;20037;-79
2021/07/21 06:58:44;;;;;;;12.25;10.00;;;18.40;95.60;;;;;;5050676;28;20037;-79
2021/07/21 07:01:10;;;;;;;16.83;10.52;;;18.50;95.50;;;;;;5051694;28;20477;-79
2021/07/21 07:03:35;;;;;;;18.60;11.18;;;18.60;95.40;;;;;;5051209;28;20087;-79
2021/07/21 07:06:02;;;;;;;15.75;10.05;;;18.60;95.00;;;;;;5052059;28;20142;-79
2021/07/21 07:08:29;;;;;;;18.00;10.32;;;18.70;95.10;;;;;;5052341;28;20029;-80
2021/07/21 07:10:55;;;;;;;18.05;10.60;;;18.80;95.10;;;;;;5062259;28;20489;-79
2021/07/21 07:13:21;;;;;;;15.95;11.38;;;19.00;94.60;;;;;;5053142;28;20036;-79
2021/07/21 07:15:50;;;;;;;14.85;9.07;;;19.10;93.20;;;;;;5050211;28;20029;-76
2021/07/21 07:18:17;;;;;;;18.42;8.82;;;19.20;93.10;;;;;;5051702;28;20115;-80
2021/07/21 07:20:43;;;;;;;16.75;10.30;;;19.30;93.20;;;;;;5050820;28;20029;-80
2021/07/21 07:23:09;;;;;;;12.85;8.68;;;19.30;92.40;;;;;;5052247;28;20029;-80
2021/07/21 07:25:36;;;;;;;15.68;9.88;;;19.40;92.60;;;;;;5049765;28;20040;-79
2021/07/21 07:28:01;;;;;;;16.05;10.15;;;19.50;92.40;;;;;;5045224;28;20596;-82
2021/07/21 07:30:27;;;;;;;20.65;9.55;;;19.70;91.50;;;;;;5051355;28;20029;-80
2021/07/21 07:32:53;;;;;;;18.20;10.45;;;19.70;91.20;;;;;;5052176;28;20075;-81
2021/07/21 07:35:18;;;;;;;16.48;11.15;;;19.80;91.80;;;;;;5051722;28;20413;-88
2021/07/21 07:37:44;;;;;;;16.55;10.60;;;19.80;90.60;;;;;;5055881;28;20039;-78
2021/07/21 07:40:10;;;;;;;13.82;9.90;;;19.90;90.60;;;;;;5055553;28;20028;-82
2021/07/21 07:42:36;;;;;;;14.00;10.57;;;19.90;90.30;;;;;;5053959;28;20033;-80
2021/07/21 07:45:03;;;;;;;15.18;10.10;;;20.10;90.70;;;;;;5051398;28;20090;-80
2021/07/21 07:47:29;;;;;;;13.50;9.50;;;20.30;90.00;;;;;;5048636;28;20032;-83
2021/07/21 07:49:55;;;;;;;17.83;10.82;;;20.40;89.20;;;;;;5051829;28;20025;-84
2021/07/21 07:52:20;;;;;;;19.35;10.98;;;20.40;88.20;;;;;;5046084;28;20052;-80
2021/07/21 07:54:46;;;;;;;13.35;9.45;;;20.40;87.60;;;;;;5049190;28;20077;-80
2021/07/21 07:57:12;;;;;;;20.92;10.30;;;20.30;88.40;;;;;;5051476;28;20032;-81
2021/07/21 07:59:38;;;;;;;13.45;10.23;;;20.30;88.30;;;;;;5051953;28;20029;-82
2021/07/21 08:02:04;;;;;;;15.68;10.88;;;20.30;89.80;;;;;;5050541;28;20028;-82
2021/07/21 08:04:30;;;;;;;14.43;10.15;;;20.50;89.00;;;;;;5049967;28;20033;-84
2021/07/21 08:06:55;;;;;;;21.65;11.02;;;20.60;87.40;;;;;;5051662;28;20386;-86
2021/07/21 08:09:21;;;;;;;16.42;10.50;;;20.60;87.50;;;;;;5051817;28;20033;-80
2021/07/21 08:11:52;;;;;;;15.93;11.10;;;20.70;86.50;;;;;;5053259;28;20021;-85
2021/07/21 08:14:18;;;;;;;15.40;10.45;;;20.70;85.90;;;;;;5056173;28;20039;-83
2021/07/21 08:16:49;;;;;;;17.25;10.38;;;20.80;87.40;;;;;;5054074;28;20032;-81
2021/07/21 08:19:15;;;;;;;14.48;9.98;;;20.90;87.50;;;;;;5052117;28;20033;-83
2021/07/21 08:21:42;;;;;;;13.93;10.35;;;20.90;85.80;;;;;;5058307;28;20021;-81
2021/07/21 08:24:07;;;;;;;19.05;11.07;;;21.10;86.00;;;;;;5052587;28;20068;-84
2021/07/21 08:26:33;;;;;;;15.07;9.65;;;21.20;84.00;;;;;;5051601;28;20493;-85
2021/07/21 08:28:59;;;;;;;14.90;10.02;;;21.20;83.80;;;;;;5050721;28;20025;-85
2021/07/21 08:31:26;;;;;;;20.08;11.55;;;21.30;84.60;;;;;;5051248;28;20029;-83
2021/07/21 08:33:51;;;;;;;16.70;10.38;;;21.50;83.50;;;;;;5048429;28;20610;-67
2021/07/21 08:36:17;;;;;;;15.13;9.82;;;21.60;83.60;;;;;;5042912;28;20128;-70
2021/07/21 08:38:43;;;;;;;13.35;9.52;;;21.60;82.30;;;;;;5050507;28;20025;-71
2021/07/21 08:41:09;;;;;;;17.92;9.85;;;21.60;82.20;;;;;;5054927;28;20107;-69
2021/07/21 08:43:39;;;;;;;14.23;9.88;;;21.70;81.70;;;;;;5050342;28;20071;-67
2021/07/21 08:46:05;;;;;;;13.00;9.23;;;21.80;81.40;;;;;;5050257;28;20486;-67
2021/07/21 08:48:31;;;;;;;14.02;9.73;;;22.00;80.70;;;;;;5050952;28;20069;-70
2021/07/21 08:50:56;;;;;;;14.55;10.40;;;22.10;79.40;;;;;;5050285;28;20124;-70
2021/07/21 08:53:22;;;;;;;15.52;10.05;;;22.30;78.20;;;;;;5050641;28;20037;-67
2021/07/21 08:55:49;;;;;;;14.18;10.00;;;22.40;77.40;;;;;;5048354;28;20102;-69
2021/07/21 08:58:19;;;;;;;15.25;10.63;;;22.50;77.90;;;;;;5050588;28;20040;-67
2021/07/21 09:00:45;;;;;;;16.58;9.85;;;22.50;78.20;;;;;;5050564;28;20029;-68
2021/07/21 09:03:12;;;;;;;13.52;9.63;;;22.50;76.90;;;;;;5050477;28;20124;-67
2021/07/21 09:05:38;;;;;;;26.02;11.20;;;22.60;76.30;;;;;;5050492;28;20036;-67
2021/07/21 09:08:04;;;;;;;12.93;9.65;;;22.70;76.80;;;;;;5049967;28;20128;-68
2021/07/21 09:10:31;;;;;;;10.73;8.90;;;22.70;74.60;;;;;;5053327;28;20056;-67
2021/07/21 09:12:58;;;;;;;14.82;9.40;;;22.70;75.00;;;;;;5049945;28;20025;-69
2021/07/21 09:15:24;;;;;;;16.60;9.23;;;22.80;75.40;;;;;;5050574;28;20037;-66
2021/07/21 09:18:11;;;;;;;14.02;9.48;;;23.00;75.20;;;;;;5053153;28;20024;-65
2021/07/21 09:20:39;;;;;;;19.45;9.88;;;23.10;72.40;;;;;;5054996;28;20051;-66
2021/07/21 09:23:05;;;;;;;181.38;18.05;;;23.20;71.90;;;;;;5052424;28;20025;-66
2021/07/21 09:25:33;;;;;;;13.25;9.13;;;23.40;72.20;;;;;;5053915;28;20037;-66
2021/07/21 09:28:01;;;;;;;14.93;10.18;;;23.60;71.80;;;;;;5048753;28;20037;-66
2021/07/21 09:30:36;;;;;;;20.25;8.73;;;23.70;71.10;;;;;;5054338;28;20028;-66
2021/07/21 09:33:09;;;;;;;19.15;8.90;;;23.60;70.90;;;;;;5046080;28;20021;-66
2021/07/21 09:35:38;;;;;;;15.98;9.75;;;23.70;69.70;;;;;;5053499;28;20078;-63
2021/07/21 09:38:09;;;;;;;13.07;8.55;;;23.80;69.20;;;;;;5054329;28;20094;-65
2021/07/21 09:40:37;;;;;;;11.65;8.43;;;23.80;70.90;;;;;;5067637;28;20024;-65
2021/07/21 09:43:17;;;;;;;12.50;8.38;;;24.00;71.60;;;;;;5051788;28;20458;-65
2021/07/21 09:45:44;;;;;;;11.05;9.35;;;24.20;69.80;;;;;;5053574;28;20160;-65
2021/07/21 09:48:10;;;;;;;14.65;9.60;;;24.20;69.50;;;;;;5052067;28;20025;-64
2021/07/21 09:50:39;;;;;;;13.25;8.90;;;24.30;67.50;;;;;;5053750;28;20036;-65
2021/07/21 09:53:12;;;;;;;14.52;9.15;;;24.40;67.80;;;;;;5052197;28;20025;-65
2021/07/21 09:55:40;;;;;;;17.58;9.38;;;24.40;67.90;;;;;;5051731;28;20074;-65
2021/07/21 09:58:07;;;;;;;13.43;9.35;;;24.60;67.00;;;;;;5052827;28;20957;-65
2021/07/21 10:00:34;;;;;;;19.50;8.93;;;24.60;66.20;;;;;;5054121;28;20021;-64
2021/07/21 10:03:14;;;;;;;17.52;9.90;;;24.40;66.80;;;;;;5053116;28;20036;-64
2021/07/21 10:06:09;;;;;;;17.70;9.63;;;24.60;67.60;;;;;;5054081;28;20032;-64
2021/07/21 10:08:47;;;;;;;13.40;9.32;;;24.60;65.80;;;;;;5049134;28;20044;-64
2021/07/21 10:11:32;;;;;;;14.70;8.82;;;24.60;66.80;;;;;;5054695;28;20490;-65
2021/07/21 10:14:01;;;;;;;11.35;8.88;;;24.70;65.90;;;;;;5052988;28;20029;-65
2021/07/21 10:16:29;;;;;;;12.75;9.32;;;24.90;64.50;;;;;;5051788;28;20514;-65
2021/07/21 10:19:06;;;;;;;20.85;9.10;;;24.90;64.90;;;;;;5053145;28;20478;-66
2021/07/21 10:21:32;;;;;;;12.63;8.52;;;24.90;63.60;;;;;;5053261;28;20029;-65
2021/07/21 10:23:58;;;;;;;14.80;8.63;;;24.90;63.40;;;;;;5053020;28;20036;-66
2021/07/21 10:26:27;;;;;;;12.75;9.07;;;25.00;65.00;;;;;;5053680;28;20103;-66
2021/07/21 10:28:56;;;;;;;12.23;9.17;;;25.20;61.90;;;;;;5052900;28;20071;-65
2021/07/21 10:31:22;;;;;;;13.30;9.43;;;25.30;62.60;;;;;;5052758;28;20466;-66
2021/07/21 10:33:49;;;;;;;13.15;9.10;;;25.40;61.90;;;;;;5052955;28;20025;-66
2021/07/21 10:36:14;;;;;;;13.45;8.40;;;25.50;63.60;;;;;;5052420;28;20036;-65
2021/07/21 10:38:40;;;;;;;11.90;9.52;;;25.60;61.90;;;;;;5052353;28;20488;-66
2021/07/21 10:41:06;;;;;;;12.75;8.55;;;25.60;61.10;;;;;;5057766;28;20083;-66
2021/07/21 10:43:32;;;;;;;12.73;8.50;;;25.70;61.90;;;;;;5053154;28;20029;-66
2021/07/21 10:45:57;;;;;;;11.20;8.43;;;25.80;61.60;;;;;;5051435;28;20044;-65
2021/07/21 10:48:46;;;;;;;11.23;8.48;;;25.90;61.10;;;;;;5052364;28;20099;-65
2021/07/21 10:51:56;;;;;;;10.13;8.57;;;26.00;60.50;;;;;;5052115;28;20508;-67
2021/07/21 11:00:22;;;;;;;14.27;9.27;;;26.10;59.80;;;;;;5046297;28;20036;-73
2021/07/21 11:02:52;;;;;;;10.63;9.07;;;25.90;58.70;;;;;;5052890;28;20044;-67
2021/07/21 11:05:31;;;;;;;14.40;8.25;;;25.90;60.10;;;;;;5052718;28;20028;-67
2021/07/21 11:07:57;;;;;;;15.82;9.18;;;25.90;59.30;;;;;;5051829;28;20102;-67
2021/07/21 11:10:41;;;;;;;13.90;8.90;;;26.00;58.90;;;;;;5053899;28;20025;-69
2021/07/21 11:13:34;;;;;;;13.48;9.63;;;26.10;58.00;;;;;;5051698;28;20521;-69
2021/07/21 11:16:01;;;;;;;14.25;9.65;;;26.10;58.20;;;;;;5051593;28;20067;-68
2021/07/21 11:18:27;;;;;;;12.75;9.40;;;26.10;58.80;;;;;;5052570;28;20492;-69
2021/07/21 11:20:56;;;;;;;11.85;9.02;;;26.20;59.40;;;;;;5051761;28;20056;-68
2021/07/21 11:23:48;;;;;;;16.60;10.20;;;26.30;58.50;;;;;;5052812;28;20027;-68
2021/07/21 11:26:36;;;;;;;26.85;9.18;;;26.50;57.60;;;;;;5045441;28;20036;-68
2021/07/21 11:29:27;;;;;;;13.95;8.80;;;26.60;57.50;;;;;;5050952;28;20512;-67
2021/07/21 11:31:57;;;;;;;17.13;10.15;;;26.70;58.10;;;;;;5045989;28;20033;-69
2021/07/21 11:34:29;;;;;;;13.98;9.18;;;26.80;56.80;;;;;;5052111;28;20037;-71
2021/07/21 11:36:57;;;;;;;13.98;9.82;;;26.90;56.90;;;;;;5050603;28;20100;-69
2021/07/21 11:39:48;;;;;;;12.45;8.88;;;26.90;57.10;;;;;;5050367;28;20025;-68
2021/07/21 11:42:23;;;;;;;14.02;9.75;;;26.80;56.70;;;;;;5045763;28;20032;-69
2021/07/21 11:44:50;;;;;;;13.55;9.55;;;26.90;56.30;;;;;;5051660;28;20040;-70
2021/07/21 11:47:18;;;;;;;12.95;9.68;;;27.00;56.60;;;;;;5050820;28;20032;-66
2021/07/21 11:50:08;;;;;;;12.50;8.73;;;26.80;56.90;;;;;;5052171;28;20025;-69
2021/07/21 11:52:34;;;;;;;13.38;9.50;;;26.60;56.90;;;;;;5043788;28;20036;-69
2021/07/21 11:55:00;;;;;;;13.00;9.95;;;26.70;57.90;;;;;;5050797;28;20053;-69
2021/07/21 11:57:27;;;;;;;13.75;10.20;;;26.90;56.70;;;;;;5050782;28;20021;-68
2021/07/21 11:59:54;;;;;;;18.40;10.20;;;27.00;56.90;;;;;;5050079;28;20447;-69
2021/07/21 12:02:21;;;;;;;13.35;9.60;;;27.00;57.30;;;;;;5050546;28;20032;-69
2021/07/21 12:04:49;;;;;;;13.60;9.63;;;27.10;57.60;;;;;;5051020;28;20402;-69
2021/07/21 12:07:20;;;;;;;13.88;10.73;;;27.40;56.30;;;;;;5050182;28;20129;-68
2021/07/21 12:09:48;;;;;;;12.90;10.38;;;27.40;54.50;;;;;;5044845;28;20040;-67
2021/07/21 12:12:19;;;;;;;15.82;11.13;;;27.60;54.70;;;;;;5053344;28;20112;-68
2021/07/21 12:14:53;;;;;;;12.05;9.85;;;27.70;54.40;;;;;;5051090;28;20060;-69
2021/07/21 12:17:19;;;;;;;16.67;10.23;;;27.70;54.80;;;;;;5043734;28;20029;-67
2021/07/21 12:19:58;;;;;;;12.88;10.07;;;27.80;53.70;;;;;;5051305;28;20033;-69
2021/07/21 12:22:28;;;;;;;15.80;10.45;;;27.80;53.40;;;;;;5043303;28;20083;-68
2021/07/21 12:24:57;;;;;;;14.13;9.95;;;27.90;54.10;;;;;;5049397;28;20116;-68
2021/07/21 12:27:35;;;;;;;12.60;9.55;;;28.10;54.70;;;;;;5050557;28;20033;-68
2021/07/21 12:30:05;;;;;;;12.95;9.63;;;28.00;55.00;;;;;;5043651;28;20477;-68
2021/07/21 12:32:31;;;;;;;15.52;9.25;;;28.20;56.20;;;;;;5050899;28;20021;-68
2021/07/21 12:34:57;;;;;;;16.83;10.23;;;28.00;55.30;;;;;;5050253;28;20048;-69
2021/07/21 12:37:28;;;;;;;11.05;9.57;;;27.70;55.40;;;;;;5050836;28;20068;-68
2021/07/21 12:39:55;;;;;;;13.07;9.10;;;27.40;55.60;;;;;;5051862;28;20024;-68
2021/07/21 12:42:25;;;;;;;16.38;10.13;;;27.30;56.00;;;;;;5050561;28;20060;-77
2021/07/21 12:44:55;;;;;;;18.17;10.53;;;27.50;55.90;;;;;;5042593;28;20044;-72
2021/07/21 12:47:27;;;;;;;;;;;27.60;55.40;;;;;;5050799;28;20125;-80
2021/07/21 12:50:27;;;;;;;14.23;10.52;;;27.60;55.90;;;;;;5049717;28;20296;-73
2021/07/21 12:53:00;;;;;;;14.10;10.05;;;27.70;55.60;;;;;;5037667;28;20425;-75